< < Back
Terminal Aerodrome Forecast


Current Version              Previous Versions:   1  2  3  4  5  6  7  8  9  

Terminal Aerodrome Forecast

193
FTUS42 KGSP 301720
TAFAVL
TAF
KAVL 301720Z 3018/3118 33008KT P6SM SKC
     FM311000 32003KT P6SM SCT045
     FM311200 31004KT P6SM SCT024
     FM311300 31004KT P6SM BKN045=

Latest METAR

838
SAUS70 KWBC 310800 RRH
MTRAVL
METAR KAVL 310754Z AUTO 00000KT 10SM CLR 03/01 A2998 RMK AO2 SLP144
T00330011


USA.gov is the U.S. government's official web portal to all federal, state and local government web resources and services.